sensor_id;sensor_type;location;lat;lon;timestamp;P1;durP1;ratioP1;P2;durP2;ratioP2
1026;SDS011;502;48.746;9.214;2022-12-18T00:02:34;33.17;;;20.37;;
1026;SDS011;502;48.746;9.214;2022-12-18T00:05:21;34.47;;;21.80;;
1026;SDS011;502;48.746;9.214;2022-12-18T00:08:06;33.90;;;18.20;;
1026;SDS011;502;48.746;9.214;2022-12-18T00:10:52;35.50;;;20.70;;
1026;SDS011;502;48.746;9.214;2022-12-18T00:13:37;31.73;;;19.90;;
1026;SDS011;502;48.746;9.214;2022-12-18T00:16:24;29.42;;;19.00;;
1026;SDS011;502;48.746;9.214;2022-12-18T00:19:09;31.53;;;18.40;;
1026;SDS011;502;48.746;9.214;2022-12-18T00:21:56;26.27;;;16.37;;
1026;SDS011;502;48.746;9.214;2022-12-18T00:24:42;29.50;;;18.30;;
1026;SDS011;502;48.746;9.214;2022-12-18T00:27:27;38.87;;;22.20;;
1026;SDS011;502;48.746;9.214;2022-12-18T00:30:12;33.47;;;21.23;;
1026;SDS011;502;48.746;9.214;2022-12-18T00:32:58;35.73;;;20.63;;
1026;SDS011;502;48.746;9.214;2022-12-18T00:35:43;42.22;;;22.90;;
1026;SDS011;502;48.746;9.214;2022-12-18T00:38:30;39.30;;;19.93;;
1026;SDS011;502;48.746;9.214;2022-12-18T00:41:15;29.42;;;18.67;;
1026;SDS011;502;48.746;9.214;2022-12-18T00:44:22;31.08;;;18.98;;
1026;SDS011;502;48.746;9.214;2022-12-18T00:47:06;38.53;;;21.02;;
1026;SDS011;502;48.746;9.214;2022-12-18T00:49:51;31.97;;;20.33;;
1026;SDS011;502;48.746;9.214;2022-12-18T00:52:37;41.35;;;20.38;;
1026;SDS011;502;48.746;9.214;2022-12-18T00:55:24;28.70;;;19.02;;
1026;SDS011;502;48.746;9.214;2022-12-18T00:58:09;36.95;;;20.50;;
1026;SDS011;502;48.746;9.214;2022-12-18T01:00:55;31.43;;;20.87;;
1026;SDS011;502;48.746;9.214;2022-12-18T01:03:40;27.20;;;17.05;;
1026;SDS011;502;48.746;9.214;2022-12-18T01:06:26;36.67;;;20.00;;
1026;SDS011;502;48.746;9.214;2022-12-18T01:09:11;27.77;;;18.35;;
1026;SDS011;502;48.746;9.214;2022-12-18T01:11:58;35.83;;;20.10;;
1026;SDS011;502;48.746;9.214;2022-12-18T01:14:43;26.35;;;17.23;;
1026;SDS011;502;48.746;9.214;2022-12-18T01:17:28;30.95;;;17.85;;
1026;SDS011;502;48.746;9.214;2022-12-18T01:20:14;24.75;;;15.65;;
1026;SDS011;502;48.746;9.214;2022-12-18T01:22:59;29.92;;;15.10;;
1026;SDS011;502;48.746;9.214;2022-12-18T01:25:44;26.17;;;16.73;;
1026;SDS011;502;48.746;9.214;2022-12-18T01:28:31;39.03;;;19.80;;
1026;SDS011;502;48.746;9.214;2022-12-18T01:31:18;33.30;;;18.83;;
1026;SDS011;502;48.746;9.214;2022-12-18T01:34:04;34.38;;;21.30;;
1026;SDS011;502;48.746;9.214;2022-12-18T01:36:51;34.22;;;18.90;;
1026;SDS011;502;48.746;9.214;2022-12-18T01:39:37;30.63;;;18.57;;
1026;SDS011;502;48.746;9.214;2022-12-18T01:42:22;39.97;;;20.03;;
1026;SDS011;502;48.746;9.214;2022-12-18T01:45:23;29.88;;;18.35;;
1026;SDS011;502;48.746;9.214;2022-12-18T01:48:10;31.37;;;18.60;;
1026;SDS011;502;48.746;9.214;2022-12-18T01:50:56;35.57;;;19.33;;
1026;SDS011;502;48.746;9.214;2022-12-18T01:53:44;29.17;;;16.90;;
1026;SDS011;502;48.746;9.214;2022-12-18T01:56:30;27.17;;;15.30;;
1026;SDS011;502;48.746;9.214;2022-12-18T01:59:15;31.13;;;18.20;;
1026;SDS011;502;48.746;9.214;2022-12-18T02:02:02;29.00;;;16.33;;
1026;SDS011;502;48.746;9.214;2022-12-18T02:04:48;30.67;;;16.80;;
1026;SDS011;502;48.746;9.214;2022-12-18T02:07:37;29.95;;;16.65;;
1026;SDS011;502;48.746;9.214;2022-12-18T02:10:29;23.45;;;15.98;;
1026;SDS011;502;48.746;9.214;2022-12-18T02:13:19;27.90;;;15.70;;
1026;SDS011;502;48.746;9.214;2022-12-18T02:16:06;33.87;;;17.10;;
1026;SDS011;502;48.746;9.214;2022-12-18T02:19:00;22.83;;;13.97;;
1026;SDS011;502;48.746;9.214;2022-12-18T02:21:50;27.67;;;16.52;;
1026;SDS011;502;48.746;9.214;2022-12-18T02:24:43;28.58;;;16.10;;
1026;SDS011;502;48.746;9.214;2022-12-18T02:27:31;30.40;;;15.50;;
1026;SDS011;502;48.746;9.214;2022-12-18T02:30:17;25.70;;;14.90;;
1026;SDS011;502;48.746;9.214;2022-12-18T02:33:04;23.60;;;14.90;;
1026;SDS011;502;48.746;9.214;2022-12-18T02:35:50;27.43;;;16.87;;
1026;SDS011;502;48.746;9.214;2022-12-18T02:38:40;26.27;;;15.90;;
1026;SDS011;502;48.746;9.214;2022-12-18T02:41:29;28.52;;;15.63;;
1026;SDS011;502;48.746;9.214;2022-12-18T02:44:17;26.87;;;16.10;;
1026;SDS011;502;48.746;9.214;2022-12-18T02:47:02;26.70;;;15.63;;
1026;SDS011;502;48.746;9.214;2022-12-18T02:49:49;33.33;;;16.53;;
1026;SDS011;502;48.746;9.214;2022-12-18T02:52:41;23.67;;;17.67;;
1026;SDS011;502;48.746;9.214;2022-12-18T02:55:33;30.10;;;16.93;;
1026;SDS011;502;48.746;9.214;2022-12-18T02:58:30;25.53;;;16.70;;
1026;SDS011;502;48.746;9.214;2022-12-18T03:01:28;32.27;;;18.63;;
1026;SDS011;502;48.746;9.214;2022-12-18T03:04:18;25.08;;;14.75;;
1026;SDS011;502;48.746;9.214;2022-12-18T03:07:07;21.70;;;13.90;;
1026;SDS011;502;48.746;9.214;2022-12-18T03:09:57;25.87;;;15.67;;
1026;SDS011;502;48.746;9.214;2022-12-18T03:12:45;26.13;;;15.87;;
1026;SDS011;502;48.746;9.214;2022-12-18T03:15:34;24.63;;;14.60;;
1026;SDS011;502;48.746;9.214;2022-12-18T03:18:27;26.13;;;15.60;;
1026;SDS011;502;48.746;9.214;2022-12-18T03:21:15;22.60;;;14.90;;
1026;SDS011;502;48.746;9.214;2022-12-18T03:24:03;23.70;;;14.57;;
1026;SDS011;502;48.746;9.214;2022-12-18T03:26:53;27.90;;;14.67;;
1026;SDS011;502;48.746;9.214;2022-12-18T03:29:40;28.17;;;16.20;;
1026;SDS011;502;48.746;9.214;2022-12-18T03:32:31;26.80;;;14.77;;
1026;SDS011;502;48.746;9.214;2022-12-18T03:35:21;26.38;;;14.50;;
1026;SDS011;502;48.746;9.214;2022-12-18T03:38:10;24.23;;;16.17;;
1026;SDS011;502;48.746;9.214;2022-12-18T03:41:02;23.33;;;15.40;;
1026;SDS011;502;48.746;9.214;2022-12-18T03:44:00;20.83;;;15.00;;
1026;SDS011;502;48.746;9.214;2022-12-18T03:46:52;28.17;;;17.33;;
1026;SDS011;502;48.746;9.214;2022-12-18T03:49:44;25.17;;;15.75;;
1026;SDS011;502;48.746;9.214;2022-12-18T03:52:36;23.50;;;15.00;;
1026;SDS011;502;48.746;9.214;2022-12-18T03:55:24;29.02;;;15.00;;
1026;SDS011;502;48.746;9.214;2022-12-18T03:58:17;29.30;;;14.75;;
1026;SDS011;502;48.746;9.214;2022-12-18T04:01:16;25.90;;;16.58;;
1026;SDS011;502;48.746;9.214;2022-12-18T04:04:03;26.55;;;15.70;;
1026;SDS011;502;48.746;9.214;2022-12-18T04:06:53;27.60;;;16.53;;
1026;SDS011;502;48.746;9.214;2022-12-18T04:09:41;20.08;;;13.75;;
1026;SDS011;502;48.746;9.214;2022-12-18T04:12:28;23.07;;;14.97;;
1026;SDS011;502;48.746;9.214;2022-12-18T04:15:14;26.20;;;13.93;;
1026;SDS011;502;48.746;9.214;2022-12-18T04:18:00;30.67;;;14.48;;
1026;SDS011;502;48.746;9.214;2022-12-18T04:20:54;26.10;;;13.65;;
1026;SDS011;502;48.746;9.214;2022-12-18T04:23:40;24.95;;;15.65;;
1026;SDS011;502;48.746;9.214;2022-12-18T04:26:27;28.30;;;14.45;;
1026;SDS011;502;48.746;9.214;2022-12-18T04:29:27;22.45;;;13.30;;
1026;SDS011;502;48.746;9.214;2022-12-18T04:32:12;25.23;;;15.63;;
1026;SDS011;502;48.746;9.214;2022-12-18T04:35:00;23.35;;;14.93;;
1026;SDS011;502;48.746;9.214;2022-12-18T04:37:48;18.08;;;12.88;;
1026;SDS011;502;48.746;9.214;2022-12-18T04:40:33;26.52;;;16.08;;
1026;SDS011;502;48.746;9.214;2022-12-18T04:43:22;25.27;;;14.90;;
1026;SDS011;502;48.746;9.214;2022-12-18T04:46:08;25.10;;;15.20;;
1026;SDS011;502;48.746;9.214;2022-12-18T04:48:53;30.65;;;15.52;;
1026;SDS011;502;48.746;9.214;2022-12-18T04:51:39;21.63;;;15.20;;
1026;SDS011;502;48.746;9.214;2022-12-18T04:54:24;29.05;;;14.88;;
1026;SDS011;502;48.746;9.214;2022-12-18T04:57:09;24.98;;;15.48;;
1026;SDS011;502;48.746;9.214;2022-12-18T04:59:56;22.45;;;15.23;;
1026;SDS011;502;48.746;9.214;2022-12-18T05:02:42;19.83;;;13.55;;
1026;SDS011;502;48.746;9.214;2022-12-18T05:05:27;22.98;;;14.35;;
1026;SDS011;502;48.746;9.214;2022-12-18T05:08:12;23.55;;;14.60;;
1026;SDS011;502;48.746;9.214;2022-12-18T05:10:58;29.67;;;15.13;;
1026;SDS011;502;48.746;9.214;2022-12-18T05:13:44;24.30;;;13.48;;
1026;SDS011;502;48.746;9.214;2022-12-18T05:16:31;28.08;;;13.73;;
1026;SDS011;502;48.746;9.214;2022-12-18T05:19:16;26.27;;;13.32;;
1026;SDS011;502;48.746;9.214;2022-12-18T05:22:02;22.45;;;13.75;;
1026;SDS011;502;48.746;9.214;2022-12-18T05:24:47;25.00;;;13.57;;
1026;SDS011;502;48.746;9.214;2022-12-18T05:27:33;21.35;;;12.63;;
1026;SDS011;502;48.746;9.214;2022-12-18T05:30:18;20.42;;;13.35;;
1026;SDS011;502;48.746;9.214;2022-12-18T05:33:05;25.45;;;13.55;;
1026;SDS011;502;48.746;9.214;2022-12-18T05:35:50;24.38;;;13.65;;
1026;SDS011;502;48.746;9.214;2022-12-18T05:38:37;21.83;;;13.43;;
1026;SDS011;502;48.746;9.214;2022-12-18T05:41:23;24.35;;;14.90;;
1026;SDS011;502;48.746;9.214;2022-12-18T05:44:09;23.08;;;13.30;;
1026;SDS011;502;48.746;9.214;2022-12-18T05:46:54;19.20;;;12.73;;
1026;SDS011;502;48.746;9.214;2022-12-18T05:49:41;21.85;;;14.05;;
1026;SDS011;502;48.746;9.214;2022-12-18T05:52:26;26.48;;;14.55;;
1026;SDS011;502;48.746;9.214;2022-12-18T05:55:11;24.63;;;13.68;;
1026;SDS011;502;48.746;9.214;2022-12-18T05:57:56;27.13;;;14.20;;
1026;SDS011;502;48.746;9.214;2022-12-18T06:00:43;20.50;;;12.40;;
1026;SDS011;502;48.746;9.214;2022-12-18T06:03:29;20.42;;;12.80;;
1026;SDS011;502;48.746;9.214;2022-12-18T06:06:17;19.00;;;11.57;;
1026;SDS011;502;48.746;9.214;2022-12-18T06:09:03;23.48;;;12.02;;
1026;SDS011;502;48.746;9.214;2022-12-18T06:11:52;23.15;;;13.25;;
1026;SDS011;502;48.746;9.214;2022-12-18T06:14:37;21.17;;;12.32;;
1026;SDS011;502;48.746;9.214;2022-12-18T06:17:22;20.08;;;14.00;;
1026;SDS011;502;48.746;9.214;2022-12-18T06:20:08;23.98;;;13.43;;
1026;SDS011;502;48.746;9.214;2022-12-18T06:22:55;20.25;;;12.20;;
1026;SDS011;502;48.746;9.214;2022-12-18T06:25:40;21.98;;;12.70;;
1026;SDS011;502;48.746;9.214;2022-12-18T06:28:26;23.52;;;13.82;;
1026;SDS011;502;48.746;9.214;2022-12-18T06:31:11;19.55;;;12.23;;
1026;SDS011;502;48.746;9.214;2022-12-18T06:33:57;20.92;;;13.73;;
1026;SDS011;502;48.746;9.214;2022-12-18T06:36:42;16.60;;;11.32;;
1026;SDS011;502;48.746;9.214;2022-12-18T06:39:29;19.58;;;12.13;;
1026;SDS011;502;48.746;9.214;2022-12-18T06:42:14;30.42;;;14.95;;
1026;SDS011;502;48.746;9.214;2022-12-18T06:45:00;28.10;;;14.82;;
1026;SDS011;502;48.746;9.214;2022-12-18T06:47:45;22.17;;;13.00;;
1026;SDS011;502;48.746;9.214;2022-12-18T06:50:30;23.60;;;13.77;;
1026;SDS011;502;48.746;9.214;2022-12-18T06:53:16;20.60;;;11.57;;
1026;SDS011;502;48.746;9.214;2022-12-18T06:56:03;19.52;;;13.80;;
1026;SDS011;502;48.746;9.214;2022-12-18T06:58:49;21.95;;;12.90;;
1026;SDS011;502;48.746;9.214;2022-12-18T07:01:34;19.65;;;12.30;;
1026;SDS011;502;48.746;9.214;2022-12-18T07:04:20;18.35;;;11.43;;
1026;SDS011;502;48.746;9.214;2022-12-18T07:07:05;18.38;;;13.02;;
1026;SDS011;502;48.746;9.214;2022-12-18T07:09:51;24.33;;;12.65;;
1026;SDS011;502;48.746;9.214;2022-12-18T07:12:37;17.75;;;12.40;;
1026;SDS011;502;48.746;9.214;2022-12-18T07:15:23;18.27;;;13.30;;
1026;SDS011;502;48.746;9.214;2022-12-18T07:18:08;31.13;;;16.33;;
1026;SDS011;502;48.746;9.214;2022-12-18T07:20:53;21.42;;;14.93;;
1026;SDS011;502;48.746;9.214;2022-12-18T07:23:39;18.25;;;12.30;;
1026;SDS011;502;48.746;9.214;2022-12-18T07:26:24;21.95;;;13.40;;
1026;SDS011;502;48.746;9.214;2022-12-18T07:29:11;19.80;;;12.27;;
1026;SDS011;502;48.746;9.214;2022-12-18T07:31:57;29.92;;;15.45;;
1026;SDS011;502;48.746;9.214;2022-12-18T07:34:42;28.30;;;15.60;;
1026;SDS011;502;48.746;9.214;2022-12-18T07:37:27;21.77;;;12.18;;
1026;SDS011;502;48.746;9.214;2022-12-18T07:40:13;20.55;;;12.80;;
1026;SDS011;502;48.746;9.214;2022-12-18T07:42:58;22.52;;;12.93;;
1026;SDS011;502;48.746;9.214;2022-12-18T07:45:45;13.98;;;11.15;;
1026;SDS011;502;48.746;9.214;2022-12-18T07:48:30;22.08;;;14.23;;
1026;SDS011;502;48.746;9.214;2022-12-18T07:51:16;22.23;;;13.70;;
1026;SDS011;502;48.746;9.214;2022-12-18T07:54:02;33.10;;;17.52;;
1026;SDS011;502;48.746;9.214;2022-12-18T07:56:48;26.05;;;13.20;;
1026;SDS011;502;48.746;9.214;2022-12-18T07:59:33;26.48;;;16.30;;
1026;SDS011;502;48.746;9.214;2022-12-18T08:02:22;22.27;;;13.53;;
1026;SDS011;502;48.746;9.214;2022-12-18T08:05:08;21.70;;;13.90;;
1026;SDS011;502;48.746;9.214;2022-12-18T08:07:53;17.13;;;12.32;;
1026;SDS011;502;48.746;9.214;2022-12-18T08:10:39;22.88;;;14.93;;
1026;SDS011;502;48.746;9.214;2022-12-18T08:13:25;21.38;;;13.88;;
1026;SDS011;502;48.746;9.214;2022-12-18T08:16:11;27.20;;;13.57;;
1026;SDS011;502;48.746;9.214;2022-12-18T08:18:57;21.70;;;12.93;;
1026;SDS011;502;48.746;9.214;2022-12-18T08:21:43;23.00;;;15.27;;
1026;SDS011;502;48.746;9.214;2022-12-18T08:24:28;20.77;;;14.55;;
1026;SDS011;502;48.746;9.214;2022-12-18T08:27:14;21.53;;;12.97;;
1026;SDS011;502;48.746;9.214;2022-12-18T08:30:00;25.97;;;15.27;;
1026;SDS011;502;48.746;9.214;2022-12-18T08:32:45;21.40;;;13.98;;
1026;SDS011;502;48.746;9.214;2022-12-18T08:35:36;27.23;;;14.90;;
1026;SDS011;502;48.746;9.214;2022-12-18T08:38:21;26.47;;;14.20;;
1026;SDS011;502;48.746;9.214;2022-12-18T08:41:08;23.23;;;13.57;;
1026;SDS011;502;48.746;9.214;2022-12-18T08:43:54;26.90;;;13.50;;
1026;SDS011;502;48.746;9.214;2022-12-18T08:46:57;24.73;;;14.60;;
1026;SDS011;502;48.746;9.214;2022-12-18T08:49:42;24.70;;;15.10;;
1026;SDS011;502;48.746;9.214;2022-12-18T08:52:30;29.23;;;15.43;;
1026;SDS011;502;48.746;9.214;2022-12-18T08:55:16;25.50;;;18.07;;
1026;SDS011;502;48.746;9.214;2022-12-18T08:58:01;35.57;;;17.93;;
1026;SDS011;502;48.746;9.214;2022-12-18T09:00:46;29.63;;;18.07;;
1026;SDS011;502;48.746;9.214;2022-12-18T09:03:32;22.40;;;15.60;;
1026;SDS011;502;48.746;9.214;2022-12-18T09:06:18;28.60;;;15.73;;
1026;SDS011;502;48.746;9.214;2022-12-18T09:09:06;29.00;;;18.07;;
1026;SDS011;502;48.746;9.214;2022-12-18T09:11:51;22.50;;;15.30;;
1026;SDS011;502;48.746;9.214;2022-12-18T09:14:37;28.07;;;17.53;;
1026;SDS011;502;48.746;9.214;2022-12-18T09:17:22;27.47;;;16.77;;
1026;SDS011;502;48.746;9.214;2022-12-18T09:20:08;25.13;;;15.10;;
1026;SDS011;502;48.746;9.214;2022-12-18T09:22:54;27.50;;;16.47;;
1026;SDS011;502;48.746;9.214;2022-12-18T09:25:41;24.27;;;15.87;;
1026;SDS011;502;48.746;9.214;2022-12-18T09:28:26;26.33;;;15.23;;
1026;SDS011;502;48.746;9.214;2022-12-18T09:31:12;22.20;;;14.33;;
1026;SDS011;502;48.746;9.214;2022-12-18T09:33:58;26.70;;;15.30;;
1026;SDS011;502;48.746;9.214;2022-12-18T09:36:43;28.97;;;15.27;;
1026;SDS011;502;48.746;9.214;2022-12-18T09:39:28;27.10;;;17.20;;
1026;SDS011;502;48.746;9.214;2022-12-18T09:42:17;30.70;;;17.03;;
1026;SDS011;502;48.746;9.214;2022-12-18T09:45:07;25.83;;;16.73;;
1026;SDS011;502;48.746;9.214;2022-12-18T09:47:57;23.97;;;15.33;;
1026;SDS011;502;48.746;9.214;2022-12-18T09:50:42;27.47;;;15.23;;
1026;SDS011;502;48.746;9.214;2022-12-18T09:53:30;29.20;;;17.30;;
1026;SDS011;502;48.746;9.214;2022-12-18T09:56:18;24.90;;;16.37;;
1026;SDS011;502;48.746;9.214;2022-12-18T09:59:14;29.00;;;17.00;;
1026;SDS011;502;48.746;9.214;2022-12-18T10:02:12;21.20;;;14.47;;
1026;SDS011;502;48.746;9.214;2022-12-18T10:05:03;22.73;;;14.37;;
1026;SDS011;502;48.746;9.214;2022-12-18T10:07:53;29.30;;;17.80;;
1026;SDS011;502;48.746;9.214;2022-12-18T10:10:41;25.83;;;16.37;;
1026;SDS011;502;48.746;9.214;2022-12-18T10:13:33;30.10;;;18.20;;
1026;SDS011;502;48.746;9.214;2022-12-18T10:16:25;29.90;;;16.83;;
1026;SDS011;502;48.746;9.214;2022-12-18T10:19:27;26.13;;;15.17;;
1026;SDS011;502;48.746;9.214;2022-12-18T10:22:22;27.00;;;16.07;;
1026;SDS011;502;48.746;9.214;2022-12-18T10:25:17;26.37;;;14.87;;
1026;SDS011;502;48.746;9.214;2022-12-18T10:28:07;24.90;;;13.60;;
1026;SDS011;502;48.746;9.214;2022-12-18T10:30:55;26.00;;;15.07;;
1026;SDS011;502;48.746;9.214;2022-12-18T10:33:42;30.30;;;15.67;;
1026;SDS011;502;48.746;9.214;2022-12-18T10:36:28;25.63;;;14.53;;
1026;SDS011;502;48.746;9.214;2022-12-18T10:39:15;24.93;;;15.57;;
1026;SDS011;502;48.746;9.214;2022-12-18T10:42:09;23.70;;;15.13;;
1026;SDS011;502;48.746;9.214;2022-12-18T10:45:00;29.20;;;17.40;;
1026;SDS011;502;48.746;9.214;2022-12-18T10:47:46;28.30;;;16.27;;
1026;SDS011;502;48.746;9.214;2022-12-18T10:50:35;32.30;;;18.37;;
1026;SDS011;502;48.746;9.214;2022-12-18T10:53:22;28.33;;;17.00;;
1026;SDS011;502;48.746;9.214;2022-12-18T10:56:07;23.57;;;14.33;;
1026;SDS011;502;48.746;9.214;2022-12-18T10:58:57;29.80;;;16.07;;
1026;SDS011;502;48.746;9.214;2022-12-18T11:01:45;23.00;;;14.20;;
1026;SDS011;502;48.746;9.214;2022-12-18T11:04:33;31.33;;;15.80;;
1026;SDS011;502;48.746;9.214;2022-12-18T11:07:20;21.77;;;14.70;;
1026;SDS011;502;48.746;9.214;2022-12-18T11:10:15;33.20;;;20.17;;
1026;SDS011;502;48.746;9.214;2022-12-18T11:13:11;31.67;;;17.57;;
1026;SDS011;502;48.746;9.214;2022-12-18T11:15:57;25.60;;;14.83;;
1026;SDS011;502;48.746;9.214;2022-12-18T11:18:43;28.67;;;16.30;;
1026;SDS011;502;48.746;9.214;2022-12-18T11:21:28;26.07;;;14.10;;
1026;SDS011;502;48.746;9.214;2022-12-18T11:24:19;26.33;;;15.97;;
1026;SDS011;502;48.746;9.214;2022-12-18T11:27:05;24.70;;;14.57;;
1026;SDS011;502;48.746;9.214;2022-12-18T11:30:07;19.50;;;11.97;;
1026;SDS011;502;48.746;9.214;2022-12-18T11:32:54;20.90;;;13.40;;
1026;SDS011;502;48.746;9.214;2022-12-18T11:35:42;21.77;;;13.33;;
1026;SDS011;502;48.746;9.214;2022-12-18T11:38:31;22.70;;;14.43;;
1026;SDS011;502;48.746;9.214;2022-12-18T11:41:21;23.00;;;13.67;;
1026;SDS011;502;48.746;9.214;2022-12-18T11:44:32;26.40;;;15.33;;
1026;SDS011;502;48.746;9.214;2022-12-18T11:47:25;22.17;;;14.40;;
1026;SDS011;502;48.746;9.214;2022-12-18T11:50:14;26.07;;;14.27;;
1026;SDS011;502;48.746;9.214;2022-12-18T11:53:02;25.30;;;14.70;;
1026;SDS011;502;48.746;9.214;2022-12-18T11:55:50;31.20;;;15.93;;
1026;SDS011;502;48.746;9.214;2022-12-18T11:58:45;22.53;;;13.40;;
1026;SDS011;502;48.746;9.214;2022-12-18T12:01:35;22.83;;;13.77;;
1026;SDS011;502;48.746;9.214;2022-12-18T12:07:42;27.10;;;14.60;;
1026;SDS011;502;48.746;9.214;2022-12-18T12:10:36;30.10;;;16.23;;
1026;SDS011;502;48.746;9.214;2022-12-18T12:13:30;24.47;;;14.43;;
1026;SDS011;502;48.746;9.214;2022-12-18T12:16:25;25.03;;;15.03;;
1026;SDS011;502;48.746;9.214;2022-12-18T12:19:18;30.17;;;16.57;;
1026;SDS011;502;48.746;9.214;2022-12-18T12:22:12;24.07;;;15.47;;
1026;SDS011;502;48.746;9.214;2022-12-18T12:25:03;27.40;;;15.37;;
1026;SDS011;502;48.746;9.214;2022-12-18T12:27:56;24.63;;;15.33;;
1026;SDS011;502;48.746;9.214;2022-12-18T12:30:51;28.57;;;16.53;;
1026;SDS011;502;48.746;9.214;2022-12-18T12:33:43;25.07;;;16.30;;
1026;SDS011;502;48.746;9.214;2022-12-18T12:36:33;26.63;;;17.20;;
1026;SDS011;502;48.746;9.214;2022-12-18T12:39:22;29.63;;;16.83;;
1026;SDS011;502;48.746;9.214;2022-12-18T12:42:12;28.93;;;17.00;;
1026;SDS011;502;48.746;9.214;2022-12-18T12:45:20;27.27;;;16.87;;
1026;SDS011;502;48.746;9.214;2022-12-18T12:48:11;28.80;;;17.67;;
1026;SDS011;502;48.746;9.214;2022-12-18T12:51:04;24.43;;;16.67;;
1026;SDS011;502;48.746;9.214;2022-12-18T12:53:54;20.80;;;14.20;;
1026;SDS011;502;48.746;9.214;2022-12-18T12:56:47;25.30;;;15.13;;
1026;SDS011;502;48.746;9.214;2022-12-18T12:59:37;25.10;;;14.30;;
1026;SDS011;502;48.746;9.214;2022-12-18T13:02:28;21.10;;;14.37;;
1026;SDS011;502;48.746;9.214;2022-12-18T13:05:17;27.23;;;15.17;;
1026;SDS011;502;48.746;9.214;2022-12-18T13:08:06;30.00;;;15.80;;
1026;SDS011;502;48.746;9.214;2022-12-18T13:10:54;32.60;;;17.27;;
1026;SDS011;502;48.746;9.214;2022-12-18T13:14:01;25.93;;;16.40;;
1026;SDS011;502;48.746;9.214;2022-12-18T13:16:45;25.87;;;16.03;;
1026;SDS011;502;48.746;9.214;2022-12-18T13:19:30;25.93;;;17.27;;
1026;SDS011;502;48.746;9.214;2022-12-18T13:22:20;27.73;;;15.87;;
1026;SDS011;502;48.746;9.214;2022-12-18T13:28:20;28.03;;;15.10;;
1026;SDS011;502;48.746;9.214;2022-12-18T13:31:06;26.50;;;16.33;;
1026;SDS011;502;48.746;9.214;2022-12-18T13:33:51;27.03;;;16.87;;
1026;SDS011;502;48.746;9.214;2022-12-18T13:37:32;28.77;;;15.83;;
1026;SDS011;502;48.746;9.214;2022-12-18T13:43:41;31.93;;;17.20;;
1026;SDS011;502;48.746;9.214;2022-12-18T13:46:27;29.80;;;18.13;;
1026;SDS011;502;48.746;9.214;2022-12-18T13:49:19;24.00;;;17.37;;
1026;SDS011;502;48.746;9.214;2022-12-18T13:52:14;28.10;;;15.73;;
1026;SDS011;502;48.746;9.214;2022-12-18T13:55:02;31.80;;;18.13;;
1026;SDS011;502;48.746;9.214;2022-12-18T13:57:50;30.93;;;17.83;;
1026;SDS011;502;48.746;9.214;2022-12-18T14:00:49;32.67;;;17.60;;
1026;SDS011;502;48.746;9.214;2022-12-18T14:03:34;29.17;;;16.90;;
1026;SDS011;502;48.746;9.214;2022-12-18T14:06:20;33.93;;;18.77;;
1026;SDS011;502;48.746;9.214;2022-12-18T14:09:05;29.73;;;16.87;;
1026;SDS011;502;48.746;9.214;2022-12-18T14:11:53;29.37;;;16.70;;
1026;SDS011;502;48.746;9.214;2022-12-18T14:15:01;27.03;;;17.77;;
1026;SDS011;502;48.746;9.214;2022-12-18T14:17:50;31.20;;;18.57;;
1026;SDS011;502;48.746;9.214;2022-12-18T14:20:35;27.37;;;17.87;;
1026;SDS011;502;48.746;9.214;2022-12-18T14:23:28;30.07;;;18.57;;
1026;SDS011;502;48.746;9.214;2022-12-18T14:26:21;28.07;;;16.57;;
1026;SDS011;502;48.746;9.214;2022-12-18T14:29:18;28.60;;;16.57;;
1026;SDS011;502;48.746;9.214;2022-12-18T14:32:10;35.47;;;18.17;;
1026;SDS011;502;48.746;9.214;2022-12-18T14:34:57;26.83;;;17.23;;
1026;SDS011;502;48.746;9.214;2022-12-18T14:37:43;26.97;;;17.77;;
1026;SDS011;502;48.746;9.214;2022-12-18T14:40:28;28.83;;;16.80;;
1026;SDS011;502;48.746;9.214;2022-12-18T14:43:14;34.73;;;20.90;;
1026;SDS011;502;48.746;9.214;2022-12-18T14:45:59;35.50;;;21.40;;
1026;SDS011;502;48.746;9.214;2022-12-18T14:48:46;34.43;;;19.73;;
1026;SDS011;502;48.746;9.214;2022-12-18T14:51:33;29.27;;;18.40;;
1026;SDS011;502;48.746;9.214;2022-12-18T14:54:20;34.37;;;19.47;;
1026;SDS011;502;48.746;9.214;2022-12-18T14:57:13;32.10;;;18.70;;
1026;SDS011;502;48.746;9.214;2022-12-18T15:00:04;32.63;;;18.33;;
1026;SDS011;502;48.746;9.214;2022-12-18T15:02:50;31.87;;;18.03;;
1026;SDS011;502;48.746;9.214;2022-12-18T15:05:38;33.63;;;18.30;;
1026;SDS011;502;48.746;9.214;2022-12-18T15:08:40;27.93;;;18.37;;
1026;SDS011;502;48.746;9.214;2022-12-18T15:11:27;31.63;;;18.70;;
1026;SDS011;502;48.746;9.214;2022-12-18T15:14:34;31.10;;;18.27;;
1026;SDS011;502;48.746;9.214;2022-12-18T15:17:23;27.70;;;17.60;;
1026;SDS011;502;48.746;9.214;2022-12-18T15:20:09;30.43;;;19.20;;
1026;SDS011;502;48.746;9.214;2022-12-18T15:22:55;28.00;;;18.17;;
1026;SDS011;502;48.746;9.214;2022-12-18T15:25:42;25.90;;;14.33;;
1026;SDS011;502;48.746;9.214;2022-12-18T15:28:28;36.40;;;19.53;;
1026;SDS011;502;48.746;9.214;2022-12-18T15:31:22;30.27;;;19.30;;
1026;SDS011;502;48.746;9.214;2022-12-18T15:34:15;31.40;;;18.10;;
1026;SDS011;502;48.746;9.214;2022-12-18T15:37:04;33.43;;;19.10;;
1026;SDS011;502;48.746;9.214;2022-12-18T15:39:49;33.40;;;19.37;;
1026;SDS011;502;48.746;9.214;2022-12-18T15:42:36;34.53;;;19.67;;
1026;SDS011;502;48.746;9.214;2022-12-18T15:45:39;29.57;;;16.30;;
1026;SDS011;502;48.746;9.214;2022-12-18T15:48:24;35.30;;;19.50;;
1026;SDS011;502;48.746;9.214;2022-12-18T15:51:11;32.10;;;20.03;;
1026;SDS011;502;48.746;9.214;2022-12-18T15:54:00;35.50;;;18.20;;
1026;SDS011;502;48.746;9.214;2022-12-18T15:56:48;34.63;;;20.07;;
1026;SDS011;502;48.746;9.214;2022-12-18T15:59:53;31.43;;;19.10;;
1026;SDS011;502;48.746;9.214;2022-12-18T16:02:41;30.27;;;19.67;;
1026;SDS011;502;48.746;9.214;2022-12-18T16:05:28;39.73;;;20.60;;
1026;SDS011;502;48.746;9.214;2022-12-18T16:08:14;28.47;;;17.77;;
1026;SDS011;502;48.746;9.214;2022-12-18T16:10:59;29.30;;;18.80;;
1026;SDS011;502;48.746;9.214;2022-12-18T16:13:44;31.63;;;19.53;;
1026;SDS011;502;48.746;9.214;2022-12-18T16:16:31;31.40;;;19.23;;
1026;SDS011;502;48.746;9.214;2022-12-18T16:19:16;29.37;;;18.60;;
1026;SDS011;502;48.746;9.214;2022-12-18T16:22:02;30.90;;;19.37;;
1026;SDS011;502;48.746;9.214;2022-12-18T16:24:48;32.17;;;19.23;;
1026;SDS011;502;48.746;9.214;2022-12-18T16:27:34;36.67;;;22.10;;
1026;SDS011;502;48.746;9.214;2022-12-18T16:30:21;36.10;;;21.47;;
1026;SDS011;502;48.746;9.214;2022-12-18T16:33:09;30.03;;;20.30;;
1026;SDS011;502;48.746;9.214;2022-12-18T16:35:55;38.17;;;22.10;;
1026;SDS011;502;48.746;9.214;2022-12-18T16:38:40;36.30;;;20.50;;
1026;SDS011;502;48.746;9.214;2022-12-18T16:41:26;33.20;;;21.40;;
1026;SDS011;502;48.746;9.214;2022-12-18T16:44:17;37.60;;;23.53;;
1026;SDS011;502;48.746;9.214;2022-12-18T16:47:03;41.03;;;21.70;;
1026;SDS011;502;48.746;9.214;2022-12-18T16:49:49;43.43;;;23.20;;
1026;SDS011;502;48.746;9.214;2022-12-18T16:52:36;36.50;;;23.47;;
1026;SDS011;502;48.746;9.214;2022-12-18T16:55:22;38.27;;;22.63;;
1026;SDS011;502;48.746;9.214;2022-12-18T16:58:08;28.97;;;20.67;;
1026;SDS011;502;48.746;9.214;2022-12-18T17:00:54;33.53;;;21.70;;
1026;SDS011;502;48.746;9.214;2022-12-18T17:03:39;36.17;;;21.20;;
1026;SDS011;502;48.746;9.214;2022-12-18T17:06:27;34.10;;;21.20;;
1026;SDS011;502;48.746;9.214;2022-12-18T17:09:14;36.70;;;21.43;;
1026;SDS011;502;48.746;9.214;2022-12-18T17:11:59;27.57;;;18.43;;
1026;SDS011;502;48.746;9.214;2022-12-18T17:14:45;36.13;;;23.27;;
1026;SDS011;502;48.746;9.214;2022-12-18T17:17:30;29.93;;;19.70;;
1026;SDS011;502;48.746;9.214;2022-12-18T17:20:15;33.23;;;20.77;;